createdAt,value
2019-04-04T00:02:13.089Z,8.15
2019-04-04T00:04:43.237Z,9.43
2019-04-04T00:07:11.405Z,9.60
2019-04-04T00:09:39.579Z,8.37
2019-04-04T00:12:08.673Z,9.10
2019-04-04T00:14:36.766Z,9.47
2019-04-04T00:17:04.941Z,10.53
2019-04-04T00:19:32.890Z,8.90
2019-04-04T00:22:01.064Z,9.33
2019-04-04T00:24:29.235Z,9.23
2019-04-04T00:26:58.257Z,9.55
2019-04-04T00:29:26.219Z,8.85
2019-04-04T00:31:54.399Z,9.63
2019-04-04T00:34:22.702Z,8.40
2019-04-04T00:36:51.016Z,10.55
2019-04-04T00:39:19.081Z,9.70
2019-04-04T00:41:48.106Z,9.73
2019-04-04T00:44:16.171Z,9.35
2019-04-04T00:46:44.817Z,9.73
2019-04-04T00:49:13.145Z,10.55
2019-04-04T00:51:41.537Z,8.95
2019-04-04T00:54:09.730Z,9.63
2019-04-04T00:56:38.286Z,10.03
2019-04-04T00:59:06.441Z,9.87
2019-04-04T01:01:36.048Z,9.88
2019-04-04T01:04:04.434Z,10.35
2019-04-04T01:06:33.737Z,10.25
2019-04-04T01:09:05.277Z,9.70
2019-04-04T01:11:32.466Z,10.43
2019-04-04T01:14:00.635Z,9.70
2019-04-04T01:16:29.037Z,9.83
2019-04-04T01:18:57.210Z,10.80
2019-04-04T01:21:25.258Z,10.20
2019-04-04T01:23:53.337Z,10.98
2019-04-04T01:26:21.487Z,10.30
2019-04-04T01:28:49.719Z,10.60
2019-04-04T01:31:17.883Z,12.18
2019-04-04T01:33:46.082Z,10.60
2019-04-04T01:36:14.018Z,11.40
2019-04-04T01:38:41.941Z,11.22
2019-04-04T01:41:10.264Z,10.40
2019-04-04T01:43:40.072Z,10.00
2019-04-04T01:46:08.305Z,10.50
2019-04-04T01:48:36.239Z,9.38
2019-04-04T01:51:04.354Z,10.90
2019-04-04T01:53:32.293Z,9.73
2019-04-04T01:56:00.431Z,11.18
2019-04-04T01:58:29.100Z,10.55
2019-04-04T02:00:57.422Z,11.03
2019-04-04T02:03:25.841Z,11.53
2019-04-04T02:05:53.772Z,11.38
2019-04-04T02:08:22.476Z,11.73
2019-04-04T02:10:52.980Z,11.15
2019-04-04T02:13:22.430Z,10.30
2019-04-04T02:15:50.714Z,12.10
2019-04-04T02:18:19.347Z,11.50
2019-04-04T02:20:47.843Z,11.00
2019-04-04T02:23:16.621Z,11.25
2019-04-04T02:25:44.803Z,10.70
2019-04-04T02:28:13.170Z,11.30
2019-04-04T02:30:41.530Z,12.43
2019-04-04T02:33:09.943Z,12.50
2019-04-04T02:35:38.225Z,11.28
2019-04-04T02:38:06.749Z,13.25
2019-04-04T02:40:35.267Z,14.28
2019-04-04T02:43:03.871Z,16.48
2019-04-04T02:45:32.212Z,13.53
2019-04-04T02:48:00.369Z,12.35
2019-04-04T02:50:28.799Z,12.68
2019-04-04T02:52:57.456Z,12.93
2019-04-04T02:55:29.792Z,13.58
2019-04-04T02:57:56.673Z,12.15
2019-04-04T03:00:26.959Z,12.55
2019-04-04T03:02:54.727Z,13.22
2019-04-04T03:05:22.947Z,12.35
2019-04-04T03:07:51.467Z,13.28
2019-04-04T03:10:21.835Z,12.25
2019-04-04T03:12:50.822Z,12.95
2019-04-04T03:15:20.310Z,12.50
2019-04-04T03:17:48.302Z,11.70
2019-04-04T03:20:17.463Z,12.80
2019-04-04T03:22:45.867Z,11.80
2019-04-04T03:25:14.752Z,13.60
2019-04-04T03:27:43.832Z,13.62
2019-04-04T03:30:14.429Z,13.68
2019-04-04T03:32:42.061Z,12.25
2019-04-04T03:35:10.283Z,12.98
2019-04-04T03:37:41.770Z,12.25
2019-04-04T03:40:10.047Z,12.60
2019-04-04T03:42:37.952Z,11.67
2019-04-04T03:45:06.436Z,12.83
2019-04-04T03:47:34.679Z,12.35
2019-04-04T03:50:03.582Z,13.62
2019-04-04T03:52:32.165Z,12.93
2019-04-04T03:55:00.111Z,12.88
2019-04-04T03:57:28.284Z,12.00
2019-04-04T03:59:56.751Z,12.68
2019-04-04T04:02:25.185Z,12.23
2019-04-04T04:04:53.713Z,11.20
2019-04-04T04:07:22.453Z,12.35
2019-04-04T04:09:51.634Z,12.30
2019-04-04T04:12:19.910Z,13.00
2019-04-04T04:14:48.212Z,13.45
2019-04-04T04:17:17.102Z,13.32
2019-04-04T04:19:45.640Z,11.40
2019-04-04T04:22:18.174Z,12.25
2019-04-04T04:24:44.225Z,11.88
2019-04-04T04:27:15.466Z,12.98
2019-04-04T04:29:46.466Z,13.20
2019-04-04T04:32:14.854Z,12.58
2019-04-04T04:34:45.491Z,12.90
2019-04-04T04:37:14.194Z,12.18
2019-04-04T04:39:42.711Z,12.45
2019-04-04T04:42:11.393Z,13.10
2019-04-04T04:44:39.815Z,13.20
2019-04-04T04:47:08.232Z,13.43
2019-04-04T04:49:36.654Z,13.08
2019-04-04T04:52:05.091Z,14.00
2019-04-04T04:54:33.294Z,14.73
2019-04-04T04:57:03.928Z,12.93
2019-04-04T04:59:32.248Z,13.35
2019-04-04T05:02:01.616Z,13.20
2019-04-04T05:04:32.407Z,13.60
2019-04-04T05:07:01.049Z,13.48
2019-04-04T05:09:29.765Z,13.80
2019-04-04T05:11:58.594Z,13.28
2019-04-04T05:14:27.802Z,13.78
2019-04-04T05:16:57.822Z,13.78
2019-04-04T05:19:25.743Z,14.55
2019-04-04T05:21:54.262Z,14.28
2019-04-04T05:24:23.199Z,14.70
2019-04-04T05:26:51.364Z,16.57
2019-04-04T05:29:19.530Z,14.98
2019-04-04T05:31:50.141Z,13.72
2019-04-04T05:34:18.756Z,14.05
2019-04-04T05:36:47.189Z,14.00
2019-04-04T05:39:19.142Z,14.63
2019-04-04T05:41:47.801Z,14.63
2019-04-04T05:44:16.249Z,15.68
2019-04-04T05:46:44.674Z,15.58
2019-04-04T05:49:13.118Z,15.55
2019-04-04T05:51:41.306Z,14.10
2019-04-04T05:54:09.687Z,13.48
2019-04-04T05:56:37.700Z,14.38
2019-04-04T05:59:06.353Z,13.65
2019-04-04T06:01:36.011Z,13.70
2019-04-04T06:04:04.540Z,13.70
2019-04-04T06:06:33.398Z,14.50
2019-04-04T06:09:04.986Z,14.18
2019-04-04T06:11:33.158Z,14.07
2019-04-04T06:14:01.293Z,14.67
2019-04-04T06:16:30.339Z,16.05
2019-04-04T06:19:00.234Z,15.83
2019-04-04T06:21:28.153Z,14.10
2019-04-04T06:23:56.654Z,14.00
2019-04-04T06:26:25.005Z,13.90
2019-04-04T06:28:53.271Z,13.90
2019-04-04T06:31:21.429Z,14.05
2019-04-04T06:33:49.469Z,14.28
2019-04-04T06:36:18.590Z,18.00
2019-04-04T06:38:49.613Z,15.03
2019-04-04T06:41:16.634Z,14.20
2019-04-04T06:43:44.665Z,14.78
2019-04-04T06:46:12.679Z,14.00
2019-04-04T06:48:40.613Z,14.80
2019-04-04T06:51:08.629Z,19.80
2019-04-04T06:53:36.566Z,14.45
2019-04-04T06:56:04.557Z,15.23
2019-04-04T06:58:32.561Z,16.23
2019-04-04T07:01:00.591Z,13.03
2019-04-04T07:03:28.518Z,14.67
2019-04-04T07:05:56.638Z,14.83
2019-04-04T07:08:24.701Z,15.17
2019-04-04T07:10:58.240Z,15.40
2019-04-04T07:13:27.075Z,15.40
2019-04-04T07:16:06.284Z,16.00
2019-04-04T07:18:22.770Z,14.07
2019-04-04T07:20:50.979Z,16.53
2019-04-04T07:23:18.910Z,16.67
2019-04-04T07:25:46.821Z,17.27
2019-04-04T07:28:14.934Z,16.10
2019-04-04T07:30:42.889Z,15.67
2019-04-04T07:33:12.722Z,15.87
2019-04-04T07:35:40.709Z,15.30
2019-04-04T07:38:08.622Z,15.70
2019-04-04T07:40:37.371Z,15.40
2019-04-04T07:43:08.464Z,15.70
2019-04-04T07:45:35.626Z,15.20
2019-04-04T07:48:03.659Z,14.58
2019-04-04T07:50:31.774Z,12.82
2019-04-04T07:52:59.897Z,14.60
2019-04-04T07:55:27.797Z,14.28
2019-04-04T07:57:55.746Z,14.17
2019-04-04T08:00:23.683Z,14.07
2019-04-04T08:02:51.769Z,15.03
2019-04-04T08:05:19.661Z,15.47
2019-04-04T08:07:49.458Z,14.90
2019-04-04T08:10:20.733Z,16.55
2019-04-04T08:12:47.756Z,15.70
2019-04-04T08:15:15.781Z,17.97
2019-04-04T08:17:43.959Z,16.20
2019-04-04T08:20:16.371Z,15.47
2019-04-04T08:22:44.621Z,14.17
2019-04-04T08:25:12.759Z,16.00
2019-04-04T08:27:41.310Z,15.80
2019-04-04T08:30:10.022Z,14.93
2019-04-04T08:32:41.778Z,15.13
2019-04-04T08:35:10.354Z,14.60
2019-04-04T08:37:38.618Z,15.17
2019-04-04T08:40:06.759Z,14.93
2019-04-04T08:42:35.285Z,17.37
2019-04-04T08:45:05.909Z,14.67
2019-04-04T08:47:34.038Z,16.20
2019-04-04T08:50:02.157Z,16.70
2019-04-04T08:52:30.076Z,15.53
2019-04-04T08:54:57.986Z,16.93
2019-04-04T08:57:30.393Z,14.30
2019-04-04T08:59:58.339Z,15.53
2019-04-04T09:02:26.238Z,15.50
2019-04-04T09:04:54.228Z,15.20
2019-04-04T09:07:22.354Z,14.93
2019-04-04T09:09:58.505Z,15.63
2019-04-04T09:12:26.526Z,16.03
2019-04-04T09:14:54.541Z,15.23
2019-04-04T09:17:22.464Z,15.00
2019-04-04T09:19:50.378Z,16.30
2019-04-04T09:22:18.947Z,16.73
2019-04-04T09:24:46.833Z,15.45
2019-04-04T09:27:14.850Z,16.27
2019-04-04T09:29:43.244Z,13.83
2019-04-04T09:32:11.417Z,14.53
2019-04-04T09:34:39.341Z,14.03
2019-04-04T09:37:08.879Z,16.05
2019-04-04T09:39:37.429Z,15.90
2019-04-04T09:42:05.605Z,15.08
2019-04-04T09:44:33.761Z,15.93
2019-04-04T09:47:05.709Z,13.45
2019-04-04T09:49:32.709Z,12.95
2019-04-04T09:52:01.286Z,14.13
2019-04-04T09:54:29.582Z,12.93
2019-04-04T09:56:58.354Z,14.75
2019-04-04T09:59:27.246Z,14.65
2019-04-04T10:01:56.566Z,15.98
2019-04-04T10:04:24.994Z,15.10
2019-04-04T10:06:53.281Z,15.05
2019-04-04T10:09:21.729Z,15.65
2019-04-04T10:11:49.982Z,14.15
2019-04-04T10:14:21.111Z,17.27
2019-04-04T10:16:49.562Z,16.10
2019-04-04T10:19:17.973Z,16.60
2019-04-04T10:21:46.258Z,14.68
2019-04-04T10:24:14.765Z,16.17
2019-04-04T10:26:45.795Z,17.73
2019-04-04T10:29:13.966Z,17.52
2019-04-04T10:31:42.629Z,17.80
2019-04-04T10:34:11.165Z,18.15
2019-04-04T10:36:39.921Z,14.38
2019-04-04T10:39:11.778Z,14.30
2019-04-04T10:41:40.545Z,13.03
2019-04-04T10:44:09.773Z,14.63
2019-04-04T10:46:38.285Z,13.62
2019-04-04T10:49:14.111Z,11.93
2019-04-04T10:51:41.879Z,12.35
2019-04-04T10:54:08.804Z,15.00
2019-04-04T10:56:36.340Z,13.43
2019-04-04T10:59:04.494Z,11.87
2019-04-04T11:01:33.297Z,12.30
2019-04-04T11:04:02.487Z,13.00
2019-04-04T11:06:30.906Z,12.98
2019-04-04T11:08:59.322Z,12.15
2019-04-04T11:11:28.409Z,11.55
2019-04-04T11:14:00.338Z,11.28
2019-04-04T11:16:30.544Z,9.98
2019-04-04T11:18:58.833Z,10.72
2019-04-04T11:21:26.978Z,11.93
2019-04-04T11:23:55.528Z,11.68
2019-04-04T11:26:27.613Z,12.60
2019-04-04T11:28:55.652Z,12.97
2019-04-04T11:31:24.026Z,13.00
2019-04-04T11:33:52.605Z,10.15
2019-04-04T11:36:20.895Z,10.72
2019-04-04T11:38:51.626Z,10.80
2019-04-04T11:41:20.290Z,10.80
2019-04-04T11:43:49.088Z,10.45
2019-04-04T11:46:17.658Z,11.70
2019-04-04T11:48:45.594Z,11.38
2019-04-04T11:51:16.350Z,11.33
2019-04-04T11:53:44.305Z,11.35
2019-04-04T11:56:13.411Z,10.58
2019-04-04T11:58:42.406Z,10.18
2019-04-04T12:01:11.793Z,10.55
2019-04-04T12:03:43.222Z,8.90
2019-04-04T12:06:11.739Z,10.08
2019-04-04T12:08:40.508Z,10.60
2019-04-04T12:11:09.013Z,10.93
2019-04-04T12:13:37.518Z,11.43
2019-04-04T12:16:07.336Z,11.97
2019-04-04T12:18:35.882Z,12.03
2019-04-04T12:21:04.316Z,12.07
2019-04-04T12:23:32.616Z,12.03
2019-04-04T12:26:00.895Z,11.37
2019-04-04T12:28:32.898Z,9.23
2019-04-04T12:31:01.466Z,10.10
2019-04-04T12:33:29.878Z,7.40
2019-04-04T12:35:58.419Z,7.17
2019-04-04T12:38:26.818Z,7.43
2019-04-04T12:40:58.428Z,7.60
2019-04-04T12:43:26.338Z,6.63
2019-04-04T12:45:54.363Z,8.00
2019-04-04T12:48:22.291Z,6.30
2019-04-04T12:50:50.507Z,6.95
2019-04-04T12:53:22.558Z,7.83
2019-04-04T12:55:50.647Z,7.00
2019-04-04T12:58:18.930Z,8.00
2019-04-04T13:00:46.862Z,8.75
2019-04-04T13:03:14.808Z,8.73
2019-04-04T13:05:42.821Z,8.60
2019-04-04T13:08:12.005Z,9.03
2019-04-04T13:10:39.903Z,6.43
2019-04-04T13:13:08.082Z,5.83
2019-04-04T13:15:36.111Z,5.20
2019-04-04T13:18:04.298Z,5.50
2019-04-04T13:20:33.420Z,5.17
2019-04-04T13:23:02.430Z,3.97
2019-04-04T13:25:30.702Z,4.47
2019-04-04T13:27:59.358Z,4.60
2019-04-04T13:30:27.870Z,4.87
2019-04-04T13:32:56.543Z,4.00
2019-04-04T13:35:25.685Z,4.35
2019-04-04T13:37:54.317Z,4.53
2019-04-04T13:40:22.578Z,4.27
2019-04-04T13:42:53.044Z,3.73
2019-04-04T13:45:25.408Z,4.12
2019-04-04T13:47:54.803Z,3.65
2019-04-04T13:50:23.352Z,3.70
2019-04-04T13:52:51.537Z,3.98
2019-04-04T13:55:20.242Z,3.97
2019-04-04T13:57:52.075Z,4.73
2019-04-04T14:00:20.637Z,3.70
2019-04-04T14:02:49.492Z,4.20
2019-04-04T14:05:17.809Z,4.92
2019-04-04T14:07:46.590Z,4.07
2019-04-04T14:10:17.512Z,4.37
2019-04-04T14:12:47.444Z,5.00
2019-04-04T14:15:15.646Z,5.62
2019-04-04T14:17:44.369Z,5.00
2019-04-04T14:20:16.930Z,4.97
2019-04-04T14:22:47.744Z,4.83
2019-04-04T14:25:15.962Z,4.70
2019-04-04T14:27:44.257Z,4.37
2019-04-04T14:30:12.940Z,4.37
2019-04-04T14:32:45.982Z,3.90
2019-04-04T14:35:14.571Z,5.77
2019-04-04T14:37:42.494Z,5.60
2019-04-04T14:40:10.873Z,6.20
2019-04-04T14:42:39.284Z,5.03
2019-04-04T14:45:07.629Z,6.53
2019-04-04T14:47:35.758Z,6.40
2019-04-04T14:50:04.949Z,4.80
2019-04-04T14:52:33.816Z,4.93
2019-04-04T14:55:01.942Z,4.60
2019-04-04T14:57:30.561Z,5.40
2019-04-04T14:59:58.809Z,5.13
2019-04-04T15:02:27.149Z,3.80
2019-04-04T15:04:55.180Z,5.60
2019-04-04T15:07:23.609Z,5.10
2019-04-04T15:09:51.923Z,5.37
2019-04-04T15:12:22.357Z,4.60
2019-04-04T15:14:50.935Z,4.40
2019-04-04T15:17:19.350Z,4.30
2019-04-04T15:19:48.016Z,4.22
2019-04-04T15:22:16.345Z,3.83
2019-04-04T15:24:44.332Z,3.37
2019-04-04T15:27:12.706Z,2.90
2019-04-04T15:29:41.276Z,2.90
2019-04-04T15:32:10.038Z,3.60
2019-04-04T15:34:38.793Z,3.10
2019-04-04T15:37:06.810Z,4.08
2019-04-04T15:39:38.490Z,4.97
2019-04-04T15:42:07.016Z,3.40
2019-04-04T15:44:36.190Z,3.97
2019-04-04T15:47:05.344Z,4.00
2019-04-04T15:49:34.507Z,4.15
2019-04-04T15:52:02.727Z,4.23
2019-04-04T15:54:31.408Z,4.50
2019-04-04T15:56:59.614Z,4.30
2019-04-04T15:59:27.726Z,4.50
2019-04-04T16:01:56.641Z,4.37
2019-04-04T16:04:27.434Z,3.97
2019-04-04T16:06:56.171Z,6.10
2019-04-04T16:09:25.256Z,3.83
2019-04-04T16:11:55.066Z,5.17
2019-04-04T16:14:23.610Z,4.50
2019-04-04T16:16:52.768Z,4.00
2019-04-04T16:19:20.913Z,5.30
2019-04-04T16:21:49.130Z,3.47
2019-04-04T16:24:17.500Z,3.80
2019-04-04T16:26:46.124Z,2.93
2019-04-04T16:29:14.660Z,3.10
2019-04-04T16:31:43.674Z,3.40
2019-04-04T16:34:12.365Z,3.83
2019-04-04T16:36:40.681Z,3.97
2019-04-04T16:39:09.521Z,4.15
2019-04-04T16:41:37.692Z,4.00
2019-04-04T16:44:06.166Z,4.03
2019-04-04T16:46:34.722Z,3.80
2019-04-04T16:49:02.853Z,4.27
2019-04-04T16:51:31.329Z,4.03
2019-04-04T16:53:59.982Z,3.52
2019-04-04T16:56:28.511Z,5.00
2019-04-04T16:58:56.578Z,4.10
2019-04-04T17:01:28.613Z,4.50
2019-04-04T17:04:01.762Z,3.75
2019-04-04T17:06:27.464Z,4.95
2019-04-04T17:08:55.871Z,3.67
2019-04-04T17:11:24.169Z,4.13
2019-04-04T17:13:52.651Z,4.45
2019-04-04T17:16:21.457Z,4.92
2019-04-04T17:18:49.717Z,4.90
2019-04-04T17:21:18.170Z,4.43
2019-04-04T17:23:47.113Z,5.95
2019-04-04T17:26:15.592Z,4.97
2019-04-04T17:28:43.848Z,5.78
2019-04-04T17:31:12.500Z,4.17
2019-04-04T17:33:50.912Z,4.60
2019-04-04T17:36:20.607Z,4.33
2019-04-04T17:38:47.970Z,4.45
2019-04-04T17:41:15.467Z,4.67
2019-04-04T17:43:42.850Z,4.37
2019-04-04T17:46:10.250Z,5.00
2019-04-04T17:48:37.979Z,5.20
2019-04-04T17:51:05.449Z,4.95
2019-04-04T17:53:33.131Z,4.58
2019-04-04T17:56:00.827Z,5.40
2019-04-04T17:58:28.671Z,5.35
2019-04-04T18:00:57.256Z,5.28
2019-04-04T18:03:25.774Z,5.90
2019-04-04T18:05:53.681Z,5.67
2019-04-04T18:08:21.602Z,5.17
2019-04-04T18:10:49.637Z,5.40
2019-04-04T18:13:17.695Z,5.10
2019-04-04T18:15:45.877Z,5.53
2019-04-04T18:18:14.050Z,6.15
2019-04-04T18:20:42.322Z,6.77
2019-04-04T18:23:10.465Z,6.15
2019-04-04T18:25:38.575Z,6.55
2019-04-04T18:28:06.607Z,6.45
2019-04-04T18:30:34.748Z,8.10
2019-04-04T18:33:03.537Z,6.87
2019-04-04T18:35:31.594Z,7.30
2019-04-04T18:37:59.888Z,6.00
2019-04-04T18:40:28.442Z,7.20
2019-04-04T18:42:56.480Z,6.70
2019-04-04T18:45:24.938Z,6.05
2019-04-04T18:47:53.595Z,6.20
2019-04-04T18:50:22.109Z,6.07
2019-04-04T18:52:50.808Z,6.73
2019-04-04T18:55:20.381Z,6.73
2019-04-04T18:57:49.546Z,6.40
2019-04-04T19:00:20.097Z,6.80
2019-04-04T19:02:47.615Z,7.40
2019-04-04T19:05:16.186Z,6.27
2019-04-04T19:07:44.475Z,6.60
2019-04-04T19:10:13.240Z,7.60
2019-04-04T19:12:41.532Z,5.80
2019-04-04T19:15:10.475Z,6.30
2019-04-04T19:17:38.874Z,5.90
2019-04-04T19:20:09.933Z,7.40
2019-04-04T19:22:38.056Z,7.57
2019-04-04T19:25:07.106Z,7.47
2019-04-04T19:27:35.509Z,7.60
2019-04-04T19:30:04.527Z,8.60
2019-04-04T19:32:32.638Z,9.45
2019-04-04T19:35:01.572Z,9.23
2019-04-04T19:37:31.323Z,8.75
2019-04-04T19:40:00.129Z,8.40
2019-04-04T19:42:28.403Z,8.53
2019-04-04T19:44:56.822Z,9.30
2019-04-04T19:47:24.820Z,8.40
2019-04-04T19:49:53.102Z,8.23
2019-04-04T19:52:22.079Z,8.55
2019-04-04T19:54:50.867Z,8.77
2019-04-04T19:57:19.515Z,8.58
2019-04-04T19:59:48.397Z,9.57
2019-04-04T20:02:17.318Z,9.13
2019-04-04T20:04:45.448Z,9.35
2019-04-04T20:07:13.558Z,10.48
2019-04-04T20:09:42.338Z,10.08
2019-04-04T20:12:10.495Z,9.87
2019-04-04T20:14:38.526Z,11.27
2019-04-04T20:17:06.719Z,9.60
2019-04-04T20:19:34.658Z,9.80
2019-04-04T20:22:02.681Z,9.80
2019-04-04T20:24:30.712Z,10.97
2019-04-04T20:26:59.066Z,10.82
2019-04-04T20:29:27.100Z,8.83
2019-04-04T20:31:55.309Z,8.60
2019-04-04T20:34:23.229Z,7.83
2019-04-04T20:36:51.249Z,7.90
2019-04-04T20:39:19.400Z,9.67
2019-04-04T20:41:48.187Z,9.47
2019-04-04T20:44:16.586Z,8.93
2019-04-04T20:46:45.294Z,9.55
2019-04-04T20:49:13.442Z,8.60
2019-04-04T20:51:41.799Z,9.27
2019-04-04T20:54:10.658Z,10.33
2019-04-04T20:56:39.250Z,9.90
2019-04-04T20:59:07.754Z,9.73
2019-04-04T21:01:36.221Z,10.05
2019-04-04T21:04:04.345Z,9.37
2019-04-04T21:06:32.293Z,10.87
2019-04-04T21:09:00.795Z,11.37
2019-04-04T21:11:28.826Z,10.63
2019-04-04T21:13:56.857Z,12.80
2019-04-04T21:16:24.861Z,11.20
2019-04-04T21:18:52.839Z,10.73
2019-04-04T21:21:20.754Z,10.47
2019-04-04T21:23:48.722Z,12.82
2019-04-04T21:26:16.709Z,10.97
2019-04-04T21:28:44.657Z,11.70
2019-04-04T21:31:12.579Z,11.93
2019-04-04T21:33:40.860Z,11.27
2019-04-04T21:36:08.860Z,11.17
2019-04-04T21:38:36.787Z,11.70
2019-04-04T21:41:05.153Z,12.80
2019-04-04T21:43:33.062Z,12.60
2019-04-04T21:46:00.976Z,13.20
2019-04-04T21:48:28.904Z,12.63
2019-04-04T21:50:56.929Z,14.55
2019-04-04T21:53:24.864Z,16.17
2019-04-04T21:55:53.202Z,14.15
2019-04-04T21:58:23.934Z,14.47
2019-04-04T22:00:53.049Z,14.20
2019-04-04T22:03:21.079Z,13.60
2019-04-04T22:05:49.256Z,13.00
2019-04-04T22:08:17.269Z,14.40
2019-04-04T22:10:45.753Z,14.63
2019-04-04T22:13:13.696Z,14.67
2019-04-04T22:15:42.127Z,15.50
2019-04-04T22:18:10.250Z,15.03
2019-04-04T22:20:38.158Z,24.47
2019-04-04T22:23:06.092Z,16.70
2019-04-04T22:25:34.107Z,15.63
2019-04-04T22:28:02.245Z,15.80
2019-04-04T22:30:30.402Z,16.60
2019-04-04T22:32:58.309Z,17.90
2019-04-04T22:35:29.731Z,15.57
2019-04-04T22:37:57.634Z,16.30
2019-04-04T22:40:25.610Z,15.55
2019-04-04T22:42:53.691Z,15.50
2019-04-04T22:45:21.956Z,16.52
2019-04-04T22:47:49.924Z,16.57
2019-04-04T22:50:18.094Z,17.55
2019-04-04T22:52:49.263Z,17.37
2019-04-04T22:55:16.225Z,16.93
2019-04-04T22:57:44.151Z,17.50
2019-04-04T23:00:13.454Z,16.17
2019-04-04T23:02:41.598Z,17.13
2019-04-04T23:05:09.813Z,18.65
2019-04-04T23:07:37.927Z,18.57
2019-04-04T23:10:06.544Z,19.30
2019-04-04T23:12:34.810Z,18.10
2019-04-04T23:15:03.197Z,19.60
2019-04-04T23:17:31.210Z,19.12
2019-04-04T23:19:59.255Z,17.75
2019-04-04T23:22:27.153Z,19.17
2019-04-04T23:24:55.911Z,19.07
2019-04-04T23:27:23.828Z,17.95
2019-04-04T23:29:51.758Z,19.12
2019-04-04T23:32:19.783Z,18.42
2019-04-04T23:34:47.821Z,20.32
2019-04-04T23:37:15.782Z,20.30
2019-04-04T23:39:44.029Z,18.37
2019-04-04T23:42:11.958Z,17.87
2019-04-04T23:44:40.333Z,17.52
2019-04-04T23:47:08.259Z,17.55
2019-04-04T23:49:36.521Z,16.97
2019-04-04T23:52:04.901Z,18.37
2019-04-04T23:54:33.263Z,17.55
2019-04-04T23:57:01.321Z,16.90
2019-04-04T23:59:29.598Z,17.35
